sensor_id;sensor_type;location;lat;lon;timestamp;temperature;humidity
25128;DHT22;13107;51.304;6.866;2023-06-22T00:02:13;18.60;99.90
25128;DHT22;13107;51.304;6.866;2023-06-22T00:06:15;18.60;99.90
25128;DHT22;13107;51.304;6.866;2023-06-22T00:10:17;18.60;99.90
25128;DHT22;13107;51.304;6.866;2023-06-22T00:14:19;18.60;99.90
25128;DHT22;13107;51.304;6.866;2023-06-22T00:18:20;18.70;99.90
25128;DHT22;13107;51.304;6.866;2023-06-22T00:22:23;18.60;99.90
25128;DHT22;13107;51.304;6.866;2023-06-22T00:26:30;18.60;99.90
25128;DHT22;13107;51.304;6.866;2023-06-22T00:30:32;18.60;99.90
25128;DHT22;13107;51.304;6.866;2023-06-22T00:34:34;18.60;99.90
25128;DHT22;13107;51.304;6.866;2023-06-22T00:38:36;18.60;99.90
25128;DHT22;13107;51.304;6.866;2023-06-22T00:42:41;18.70;99.90
25128;DHT22;13107;51.304;6.866;2023-06-22T00:46:43;18.80;99.90
25128;DHT22;13107;51.304;6.866;2023-06-22T00:50:45;18.90;99.90
25128;DHT22;13107;51.304;6.866;2023-06-22T00:54:48;19.00;99.90
25128;DHT22;13107;51.304;6.866;2023-06-22T00:58:51;19.00;99.90
25128;DHT22;13107;51.304;6.866;2023-06-22T01:02:54;19.20;99.90
25128;DHT22;13107;51.304;6.866;2023-06-22T01:07:25;19.20;99.90
25128;DHT22;13107;51.304;6.866;2023-06-22T01:11:37;19.20;99.90
25128;DHT22;13107;51.304;6.866;2023-06-22T01:15:51;19.20;99.90
25128;DHT22;13107;51.304;6.866;2023-06-22T01:19:55;19.30;99.90
25128;DHT22;13107;51.304;6.866;2023-06-22T01:28:23;19.40;99.90
25128;DHT22;13107;51.304;6.866;2023-06-22T01:32:31;19.50;99.90
25128;DHT22;13107;51.304;6.866;2023-06-22T01:36:38;19.50;99.90
25128;DHT22;13107;51.304;6.866;2023-06-22T01:40:40;19.50;99.90
25128;DHT22;13107;51.304;6.866;2023-06-22T01:44:42;19.50;99.90
25128;DHT22;13107;51.304;6.866;2023-06-22T01:48:46;19.40;99.90
25128;DHT22;13107;51.304;6.866;2023-06-22T01:52:48;19.30;99.90
25128;DHT22;13107;51.304;6.866;2023-06-22T01:56:49;19.20;99.90
25128;DHT22;13107;51.304;6.866;2023-06-22T02:01:11;19.10;99.90
25128;DHT22;13107;51.304;6.866;2023-06-22T02:05:16;19.10;99.90
25128;DHT22;13107;51.304;6.866;2023-06-22T02:09:20;19.10;99.90
25128;DHT22;13107;51.304;6.866;2023-06-22T02:13:24;19.00;99.90
25128;DHT22;13107;51.304;6.866;2023-06-22T02:17:26;19.00;99.90
25128;DHT22;13107;51.304;6.866;2023-06-22T02:21:29;19.00;99.90
25128;DHT22;13107;51.304;6.866;2023-06-22T02:25:33;19.00;99.90
25128;DHT22;13107;51.304;6.866;2023-06-22T02:29:35;19.10;99.90
25128;DHT22;13107;51.304;6.866;2023-06-22T02:33:36;19.00;99.90
25128;DHT22;13107;51.304;6.866;2023-06-22T02:37:39;19.00;99.90
25128;DHT22;13107;51.304;6.866;2023-06-22T02:41:42;19.00;99.90
25128;DHT22;13107;51.304;6.866;2023-06-22T02:45:44;19.10;99.90
25128;DHT22;13107;51.304;6.866;2023-06-22T02:49:46;19.10;99.90
25128;DHT22;13107;51.304;6.866;2023-06-22T02:53:48;19.00;99.90
25128;DHT22;13107;51.304;6.866;2023-06-22T02:57:50;18.90;99.90
25128;DHT22;13107;51.304;6.866;2023-06-22T03:01:54;18.90;99.90
25128;DHT22;13107;51.304;6.866;2023-06-22T03:05:55;18.90;99.90
25128;DHT22;13107;51.304;6.866;2023-06-22T03:09:57;18.90;99.90
25128;DHT22;13107;51.304;6.866;2023-06-22T03:14:00;18.90;99.90
25128;DHT22;13107;51.304;6.866;2023-06-22T03:18:02;18.90;99.90
25128;DHT22;13107;51.304;6.866;2023-06-22T03:22:04;18.80;99.90
25128;DHT22;13107;51.304;6.866;2023-06-22T03:26:05;18.80;99.90
25128;DHT22;13107;51.304;6.866;2023-06-22T03:30:09;18.70;99.90
25128;DHT22;13107;51.304;6.866;2023-06-22T03:34:11;18.60;99.90
25128;DHT22;13107;51.304;6.866;2023-06-22T03:38:13;18.60;99.90
25128;DHT22;13107;51.304;6.866;2023-06-22T03:42:14;18.70;99.90
25128;DHT22;13107;51.304;6.866;2023-06-22T03:46:16;18.60;99.90
25128;DHT22;13107;51.304;6.866;2023-06-22T03:50:18;18.60;99.90
25128;DHT22;13107;51.304;6.866;2023-06-22T03:54:21;18.60;99.90
25128;DHT22;13107;51.304;6.866;2023-06-22T03:58:23;18.70;99.90
25128;DHT22;13107;51.304;6.866;2023-06-22T04:02:25;18.80;99.90
25128;DHT22;13107;51.304;6.866;2023-06-22T04:06:27;18.90;99.90
25128;DHT22;13107;51.304;6.866;2023-06-22T04:10:29;19.00;99.90
25128;DHT22;13107;51.304;6.866;2023-06-22T04:14:31;19.10;99.90
25128;DHT22;13107;51.304;6.866;2023-06-22T04:18:33;19.10;99.90
25128;DHT22;13107;51.304;6.866;2023-06-22T04:22:34;19.30;99.90
25128;DHT22;13107;51.304;6.866;2023-06-22T04:26:36;19.30;99.90
25128;DHT22;13107;51.304;6.866;2023-06-22T04:30:38;19.40;99.90
25128;DHT22;13107;51.304;6.866;2023-06-22T04:34:47;19.40;99.90
25128;DHT22;13107;51.304;6.866;2023-06-22T04:38:49;19.50;99.90
25128;DHT22;13107;51.304;6.866;2023-06-22T04:42:54;19.50;99.90
25128;DHT22;13107;51.304;6.866;2023-06-22T04:46:57;19.50;99.90
25128;DHT22;13107;51.304;6.866;2023-06-22T04:51:02;19.60;99.90
25128;DHT22;13107;51.304;6.866;2023-06-22T04:55:06;19.70;99.90
25128;DHT22;13107;51.304;6.866;2023-06-22T04:59:08;19.60;99.90
25128;DHT22;13107;51.304;6.866;2023-06-22T05:03:14;19.60;99.90
25128;DHT22;13107;51.304;6.866;2023-06-22T05:07:21;19.70;99.90
25128;DHT22;13107;51.304;6.866;2023-06-22T05:11:27;19.60;99.90
25128;DHT22;13107;51.304;6.866;2023-06-22T05:15:29;19.60;99.90
25128;DHT22;13107;51.304;6.866;2023-06-22T05:19:34;19.50;99.90
25128;DHT22;13107;51.304;6.866;2023-06-22T05:23:36;19.50;99.90
25128;DHT22;13107;51.304;6.866;2023-06-22T05:27:38;19.50;99.90
25128;DHT22;13107;51.304;6.866;2023-06-22T05:31:41;19.50;99.90
25128;DHT22;13107;51.304;6.866;2023-06-22T05:35:43;19.50;99.90
25128;DHT22;13107;51.304;6.866;2023-06-22T05:39:44;19.50;99.90
25128;DHT22;13107;51.304;6.866;2023-06-22T05:43:46;19.50;99.90
25128;DHT22;13107;51.304;6.866;2023-06-22T05:47:48;19.50;99.90
25128;DHT22;13107;51.304;6.866;2023-06-22T05:51:50;19.50;99.90
25128;DHT22;13107;51.304;6.866;2023-06-22T05:55:52;19.50;99.90
25128;DHT22;13107;51.304;6.866;2023-06-22T05:59:54;19.50;99.90
25128;DHT22;13107;51.304;6.866;2023-06-22T06:03:55;19.40;99.90
25128;DHT22;13107;51.304;6.866;2023-06-22T06:07:58;19.40;99.90
25128;DHT22;13107;51.304;6.866;2023-06-22T06:11:59;19.40;99.90
25128;DHT22;13107;51.304;6.866;2023-06-22T06:16:01;19.40;99.90
25128;DHT22;13107;51.304;6.866;2023-06-22T06:20:03;19.50;99.90
25128;DHT22;13107;51.304;6.866;2023-06-22T06:24:06;19.70;99.90
25128;DHT22;13107;51.304;6.866;2023-06-22T06:28:08;19.80;99.90
25128;DHT22;13107;51.304;6.866;2023-06-22T06:32:10;19.90;99.90
25128;DHT22;13107;51.304;6.866;2023-06-22T06:36:11;19.90;99.90
25128;DHT22;13107;51.304;6.866;2023-06-22T06:40:15;20.00;99.90
25128;DHT22;13107;51.304;6.866;2023-06-22T06:44:17;20.10;99.90
25128;DHT22;13107;51.304;6.866;2023-06-22T06:48:18;20.20;99.90
25128;DHT22;13107;51.304;6.866;2023-06-22T06:52:20;20.10;99.90
25128;DHT22;13107;51.304;6.866;2023-06-22T06:56:22;20.20;99.90
25128;DHT22;13107;51.304;6.866;2023-06-22T07:00:24;20.10;99.90
25128;DHT22;13107;51.304;6.866;2023-06-22T07:04:26;19.90;99.90
25128;DHT22;13107;51.304;6.866;2023-06-22T07:08:28;19.40;99.90
25128;DHT22;13107;51.304;6.866;2023-06-22T07:12:30;19.10;99.90
25128;DHT22;13107;51.304;6.866;2023-06-22T07:16:32;18.90;99.90
25128;DHT22;13107;51.304;6.866;2023-06-22T07:20:34;18.80;99.90
25128;DHT22;13107;51.304;6.866;2023-06-22T07:24:36;18.80;99.90
25128;DHT22;13107;51.304;6.866;2023-06-22T07:28:39;18.80;99.90
25128;DHT22;13107;51.304;6.866;2023-06-22T07:32:42;18.80;99.90
25128;DHT22;13107;51.304;6.866;2023-06-22T07:36:44;18.70;99.90
25128;DHT22;13107;51.304;6.866;2023-06-22T07:40:46;18.70;99.90
25128;DHT22;13107;51.304;6.866;2023-06-22T07:44:48;18.80;99.90
25128;DHT22;13107;51.304;6.866;2023-06-22T07:48:52;18.80;99.90
25128;DHT22;13107;51.304;6.866;2023-06-22T07:52:57;18.90;99.90
25128;DHT22;13107;51.304;6.866;2023-06-22T07:56:59;18.90;99.90
25128;DHT22;13107;51.304;6.866;2023-06-22T08:01:01;18.90;99.90
25128;DHT22;13107;51.304;6.866;2023-06-22T08:05:03;19.10;99.90
25128;DHT22;13107;51.304;6.866;2023-06-22T08:09:21;19.20;99.90
25128;DHT22;13107;51.304;6.866;2023-06-22T08:13:23;19.30;99.90
25128;DHT22;13107;51.304;6.866;2023-06-22T08:17:25;20.10;99.90
25128;DHT22;13107;51.304;6.866;2023-06-22T08:21:26;20.70;99.90
25128;DHT22;13107;51.304;6.866;2023-06-22T08:25:28;21.40;99.90
25128;DHT22;13107;51.304;6.866;2023-06-22T08:29:30;21.70;99.90
25128;DHT22;13107;51.304;6.866;2023-06-22T08:33:32;22.10;99.90
25128;DHT22;13107;51.304;6.866;2023-06-22T08:37:34;22.80;99.90
25128;DHT22;13107;51.304;6.866;2023-06-22T08:41:37;23.10;99.90
25128;DHT22;13107;51.304;6.866;2023-06-22T08:45:38;24.30;99.90
25128;DHT22;13107;51.304;6.866;2023-06-22T08:49:41;24.30;99.90
25128;DHT22;13107;51.304;6.866;2023-06-22T08:53:43;23.00;99.90
25128;DHT22;13107;51.304;6.866;2023-06-22T08:57:46;22.60;99.90
25128;DHT22;13107;51.304;6.866;2023-06-22T09:01:48;22.60;99.90
25128;DHT22;13107;51.304;6.866;2023-06-22T09:05:50;23.40;99.90
25128;DHT22;13107;51.304;6.866;2023-06-22T09:09:52;24.00;99.90
25128;DHT22;13107;51.304;6.866;2023-06-22T09:13:54;24.60;99.90
25128;DHT22;13107;51.304;6.866;2023-06-22T09:17:56;25.20;99.90
25128;DHT22;13107;51.304;6.866;2023-06-22T09:21:59;25.10;99.90
25128;DHT22;13107;51.304;6.866;2023-06-22T09:26:01;25.20;99.90
25128;DHT22;13107;51.304;6.866;2023-06-22T09:30:04;25.30;99.90
25128;DHT22;13107;51.304;6.866;2023-06-22T09:34:06;25.00;99.90
25128;DHT22;13107;51.304;6.866;2023-06-22T09:38:08;24.90;99.90
25128;DHT22;13107;51.304;6.866;2023-06-22T09:42:10;24.70;99.90
25128;DHT22;13107;51.304;6.866;2023-06-22T09:46:12;24.90;99.90
25128;DHT22;13107;51.304;6.866;2023-06-22T09:50:13;25.00;99.90
25128;DHT22;13107;51.304;6.866;2023-06-22T09:54:15;24.90;99.90
25128;DHT22;13107;51.304;6.866;2023-06-22T09:58:17;24.30;99.90
25128;DHT22;13107;51.304;6.866;2023-06-22T10:02:18;24.20;99.90
25128;DHT22;13107;51.304;6.866;2023-06-22T10:06:20;24.30;99.90
25128;DHT22;13107;51.304;6.866;2023-06-22T10:10:22;24.70;99.90
25128;DHT22;13107;51.304;6.866;2023-06-22T10:14:24;24.80;99.90
25128;DHT22;13107;51.304;6.866;2023-06-22T10:18:26;24.60;99.90
25128;DHT22;13107;51.304;6.866;2023-06-22T10:22:28;24.60;99.90
25128;DHT22;13107;51.304;6.866;2023-06-22T10:26:30;24.50;99.90
25128;DHT22;13107;51.304;6.866;2023-06-22T10:30:31;24.80;99.90
25128;DHT22;13107;51.304;6.866;2023-06-22T10:34:34;24.60;99.90
25128;DHT22;13107;51.304;6.866;2023-06-22T10:38:35;24.50;99.90
25128;DHT22;13107;51.304;6.866;2023-06-22T10:42:37;24.30;99.90
25128;DHT22;13107;51.304;6.866;2023-06-22T10:46:39;24.10;99.90
25128;DHT22;13107;51.304;6.866;2023-06-22T10:50:41;24.00;99.90
25128;DHT22;13107;51.304;6.866;2023-06-22T10:54:43;23.80;99.90
25128;DHT22;13107;51.304;6.866;2023-06-22T10:58:45;23.60;99.90
25128;DHT22;13107;51.304;6.866;2023-06-22T11:02:47;23.50;99.90
25128;DHT22;13107;51.304;6.866;2023-06-22T11:06:49;23.20;99.90
25128;DHT22;13107;51.304;6.866;2023-06-22T11:10:51;22.90;99.90
25128;DHT22;13107;51.304;6.866;2023-06-22T11:14:54;22.80;99.90
25128;DHT22;13107;51.304;6.866;2023-06-22T11:18:57;22.80;99.90
25128;DHT22;13107;51.304;6.866;2023-06-22T11:22:59;22.80;99.90
25128;DHT22;13107;51.304;6.866;2023-06-22T11:27:01;22.60;99.90
25128;DHT22;13107;51.304;6.866;2023-06-22T11:31:03;22.40;99.90
25128;DHT22;13107;51.304;6.866;2023-06-22T11:35:25;22.30;99.90
25128;DHT22;13107;51.304;6.866;2023-06-22T11:39:27;22.10;99.90
25128;DHT22;13107;51.304;6.866;2023-06-22T11:43:44;21.80;99.90
25128;DHT22;13107;51.304;6.866;2023-06-22T11:47:46;21.60;99.90
25128;DHT22;13107;51.304;6.866;2023-06-22T11:51:48;21.50;99.90
25128;DHT22;13107;51.304;6.866;2023-06-22T11:55:50;21.40;99.90
25128;DHT22;13107;51.304;6.866;2023-06-22T11:59:52;21.30;99.90
25128;DHT22;13107;51.304;6.866;2023-06-22T12:03:54;21.20;99.90
25128;DHT22;13107;51.304;6.866;2023-06-22T12:07:55;21.20;99.90
25128;DHT22;13107;51.304;6.866;2023-06-22T12:11:57;20.90;99.90
25128;DHT22;13107;51.304;6.866;2023-06-22T12:15:59;20.90;99.90
25128;DHT22;13107;51.304;6.866;2023-06-22T12:20:01;20.90;99.90
25128;DHT22;13107;51.304;6.866;2023-06-22T12:24:04;21.00;99.90
25128;DHT22;13107;51.304;6.866;2023-06-22T12:28:06;21.20;99.90
25128;DHT22;13107;51.304;6.866;2023-06-22T12:32:08;21.30;99.90
25128;DHT22;13107;51.304;6.866;2023-06-22T12:36:09;21.50;99.90
25128;DHT22;13107;51.304;6.866;2023-06-22T12:40:11;21.50;99.90
25128;DHT22;13107;51.304;6.866;2023-06-22T12:44:13;21.50;99.90
25128;DHT22;13107;51.304;6.866;2023-06-22T12:48:15;21.50;99.90
25128;DHT22;13107;51.304;6.866;2023-06-22T12:52:17;21.50;99.90
25128;DHT22;13107;51.304;6.866;2023-06-22T12:56:19;21.50;99.90
25128;DHT22;13107;51.304;6.866;2023-06-22T13:00:21;21.70;99.90
25128;DHT22;13107;51.304;6.866;2023-06-22T13:04:23;21.90;99.90
25128;DHT22;13107;51.304;6.866;2023-06-22T13:08:24;21.80;99.90
25128;DHT22;13107;51.304;6.866;2023-06-22T13:12:46;21.90;99.90
25128;DHT22;13107;51.304;6.866;2023-06-22T13:16:48;22.00;99.90
25128;DHT22;13107;51.304;6.866;2023-06-22T13:20:49;21.90;99.90
25128;DHT22;13107;51.304;6.866;2023-06-22T13:24:51;21.90;99.90
25128;DHT22;13107;51.304;6.866;2023-06-22T13:28:55;22.00;99.90
25128;DHT22;13107;51.304;6.866;2023-06-22T13:32:57;21.90;99.90
25128;DHT22;13107;51.304;6.866;2023-06-22T13:36:58;22.00;99.90
25128;DHT22;13107;51.304;6.866;2023-06-22T13:41:00;22.30;99.90
25128;DHT22;13107;51.304;6.866;2023-06-22T13:45:03;22.50;99.90
25128;DHT22;13107;51.304;6.866;2023-06-22T13:49:05;22.60;99.90
25128;DHT22;13107;51.304;6.866;2023-06-22T13:53:07;22.50;99.90
25128;DHT22;13107;51.304;6.866;2023-06-22T13:57:09;22.40;99.90
25128;DHT22;13107;51.304;6.866;2023-06-22T14:01:10;22.30;99.90
25128;DHT22;13107;51.304;6.866;2023-06-22T14:05:18;22.20;99.90
25128;DHT22;13107;51.304;6.866;2023-06-22T14:09:20;22.30;99.90
25128;DHT22;13107;51.304;6.866;2023-06-22T14:13:21;22.30;99.90
25128;DHT22;13107;51.304;6.866;2023-06-22T14:17:23;22.30;99.90
25128;DHT22;13107;51.304;6.866;2023-06-22T14:21:27;22.10;99.90
25128;DHT22;13107;51.304;6.866;2023-06-22T14:25:29;22.10;99.90
25128;DHT22;13107;51.304;6.866;2023-06-22T14:29:31;22.10;99.90
25128;DHT22;13107;51.304;6.866;2023-06-22T14:33:33;22.10;99.90
25128;DHT22;13107;51.304;6.866;2023-06-22T14:37:35;21.90;99.90
25128;DHT22;13107;51.304;6.866;2023-06-22T14:41:36;21.90;99.90
25128;DHT22;13107;51.304;6.866;2023-06-22T14:45:38;21.80;99.90
25128;DHT22;13107;51.304;6.866;2023-06-22T14:49:40;21.70;99.90
25128;DHT22;13107;51.304;6.866;2023-06-22T14:53:44;21.70;99.90
25128;DHT22;13107;51.304;6.866;2023-06-22T14:57:46;21.60;99.90
25128;DHT22;13107;51.304;6.866;2023-06-22T15:01:48;21.60;99.90
25128;DHT22;13107;51.304;6.866;2023-06-22T15:05:49;21.50;99.90
25128;DHT22;13107;51.304;6.866;2023-06-22T15:09:51;21.40;99.90
25128;DHT22;13107;51.304;6.866;2023-06-22T15:13:53;21.30;99.90
25128;DHT22;13107;51.304;6.866;2023-06-22T15:17:54;21.40;99.90
25128;DHT22;13107;51.304;6.866;2023-06-22T15:21:56;21.30;99.90
25128;DHT22;13107;51.304;6.866;2023-06-22T15:26:01;21.20;99.90
25128;DHT22;13107;51.304;6.866;2023-06-22T15:30:03;21.20;99.90
25128;DHT22;13107;51.304;6.866;2023-06-22T15:34:05;21.40;99.90
25128;DHT22;13107;51.304;6.866;2023-06-22T15:38:07;21.50;99.90
25128;DHT22;13107;51.304;6.866;2023-06-22T15:42:09;21.30;99.90
25128;DHT22;13107;51.304;6.866;2023-06-22T15:46:11;21.10;99.90
25128;DHT22;13107;51.304;6.866;2023-06-22T15:50:13;20.90;99.90
25128;DHT22;13107;51.304;6.866;2023-06-22T15:54:15;20.70;99.90
25128;DHT22;13107;51.304;6.866;2023-06-22T15:58:17;20.50;99.90
25128;DHT22;13107;51.304;6.866;2023-06-22T16:02:19;20.40;99.90
25128;DHT22;13107;51.304;6.866;2023-06-22T16:06:22;20.40;99.90
25128;DHT22;13107;51.304;6.866;2023-06-22T16:10:24;20.30;99.90
25128;DHT22;13107;51.304;6.866;2023-06-22T16:14:25;20.30;99.90
25128;DHT22;13107;51.304;6.866;2023-06-22T16:18:27;20.30;99.90
25128;DHT22;13107;51.304;6.866;2023-06-22T16:22:29;20.20;99.90
25128;DHT22;13107;51.304;6.866;2023-06-22T16:26:38;20.20;99.90
25128;DHT22;13107;51.304;6.866;2023-06-22T16:30:40;20.10;99.90
25128;DHT22;13107;51.304;6.866;2023-06-22T16:34:43;20.20;99.90
25128;DHT22;13107;51.304;6.866;2023-06-22T16:38:47;20.20;99.90
25128;DHT22;13107;51.304;6.866;2023-06-22T16:42:49;20.10;99.90
25128;DHT22;13107;51.304;6.866;2023-06-22T16:46:54;20.00;99.90
25128;DHT22;13107;51.304;6.866;2023-06-22T16:50:56;19.90;99.90
25128;DHT22;13107;51.304;6.866;2023-06-22T16:54:58;19.90;99.90
25128;DHT22;13107;51.304;6.866;2023-06-22T16:59:04;19.80;99.90
25128;DHT22;13107;51.304;6.866;2023-06-22T17:03:11;19.70;99.90
25128;DHT22;13107;51.304;6.866;2023-06-22T17:07:19;19.50;99.90
25128;DHT22;13107;51.304;6.866;2023-06-22T17:11:21;19.50;99.90
25128;DHT22;13107;51.304;6.866;2023-06-22T17:15:24;19.30;99.90
25128;DHT22;13107;51.304;6.866;2023-06-22T17:19:26;19.30;99.90
25128;DHT22;13107;51.304;6.866;2023-06-22T17:23:29;19.20;99.90
25128;DHT22;13107;51.304;6.866;2023-06-22T17:27:33;19.30;99.90
25128;DHT22;13107;51.304;6.866;2023-06-22T17:31:39;19.30;99.90
25128;DHT22;13107;51.304;6.866;2023-06-22T17:35:46;19.30;99.90
25128;DHT22;13107;51.304;6.866;2023-06-22T17:39:52;19.20;99.90
25128;DHT22;13107;51.304;6.866;2023-06-22T17:43:57;19.10;99.90
25128;DHT22;13107;51.304;6.866;2023-06-22T17:47:59;19.10;99.90
25128;DHT22;13107;51.304;6.866;2023-06-22T17:52:00;19.00;99.90
25128;DHT22;13107;51.304;6.866;2023-06-22T17:56:02;19.00;99.90
25128;DHT22;13107;51.304;6.866;2023-06-22T18:00:06;18.90;99.90
25128;DHT22;13107;51.304;6.866;2023-06-22T18:04:17;18.90;99.90
25128;DHT22;13107;51.304;6.866;2023-06-22T18:08:24;18.80;99.90
25128;DHT22;13107;51.304;6.866;2023-06-22T18:12:27;18.80;99.90
25128;DHT22;13107;51.304;6.866;2023-06-22T18:16:32;18.80;99.90
25128;DHT22;13107;51.304;6.866;2023-06-22T18:20:36;18.80;99.90
25128;DHT22;13107;51.304;6.866;2023-06-22T18:24:39;18.80;99.90
25128;DHT22;13107;51.304;6.866;2023-06-22T18:28:42;18.90;99.90
25128;DHT22;13107;51.304;6.866;2023-06-22T18:32:44;18.90;99.90
25128;DHT22;13107;51.304;6.866;2023-06-22T18:36:49;18.90;99.90
25128;DHT22;13107;51.304;6.866;2023-06-22T18:40:52;18.90;99.90
25128;DHT22;13107;51.304;6.866;2023-06-22T18:44:54;18.90;99.90
25128;DHT22;13107;51.304;6.866;2023-06-22T18:53:26;18.80;99.90
25128;DHT22;13107;51.304;6.866;2023-06-22T18:57:30;18.90;99.90
25128;DHT22;13107;51.304;6.866;2023-06-22T19:01:33;18.80;99.90
25128;DHT22;13107;51.304;6.866;2023-06-22T19:05:43;18.80;99.90
25128;DHT22;13107;51.304;6.866;2023-06-22T19:10:21;18.80;99.90
25128;DHT22;13107;51.304;6.866;2023-06-22T19:14:23;18.80;99.90
25128;DHT22;13107;51.304;6.866;2023-06-22T19:18:33;18.60;99.90
25128;DHT22;13107;51.304;6.866;2023-06-22T19:22:52;18.60;99.90
25128;DHT22;13107;51.304;6.866;2023-06-22T19:26:55;18.60;99.90
25128;DHT22;13107;51.304;6.866;2023-06-22T19:31:01;18.50;99.90
25128;DHT22;13107;51.304;6.866;2023-06-22T19:35:05;18.30;99.90
25128;DHT22;13107;51.304;6.866;2023-06-22T19:39:10;18.30;99.90
25128;DHT22;13107;51.304;6.866;2023-06-22T19:43:13;18.10;99.90
25128;DHT22;13107;51.304;6.866;2023-06-22T19:47:19;18.00;99.90
25128;DHT22;13107;51.304;6.866;2023-06-22T19:51:21;17.70;99.90
25128;DHT22;13107;51.304;6.866;2023-06-22T19:55:23;17.60;99.90
25128;DHT22;13107;51.304;6.866;2023-06-22T19:59:25;17.50;99.90
25128;DHT22;13107;51.304;6.866;2023-06-22T20:03:46;17.40;99.90
25128;DHT22;13107;51.304;6.866;2023-06-22T20:07:48;17.40;99.90
25128;DHT22;13107;51.304;6.866;2023-06-22T20:11:56;17.40;99.90
25128;DHT22;13107;51.304;6.866;2023-06-22T20:16:08;17.30;99.90
25128;DHT22;13107;51.304;6.866;2023-06-22T20:20:19;17.30;99.90
25128;DHT22;13107;51.304;6.866;2023-06-22T20:24:22;17.20;99.90
25128;DHT22;13107;51.304;6.866;2023-06-22T20:28:25;17.20;99.90
25128;DHT22;13107;51.304;6.866;2023-06-22T20:32:26;17.20;99.90
25128;DHT22;13107;51.304;6.866;2023-06-22T20:36:28;17.10;99.90
25128;DHT22;13107;51.304;6.866;2023-06-22T20:40:30;17.10;99.90
25128;DHT22;13107;51.304;6.866;2023-06-22T20:44:35;17.10;99.90
25128;DHT22;13107;51.304;6.866;2023-06-22T20:48:37;17.10;99.90
25128;DHT22;13107;51.304;6.866;2023-06-22T20:52:40;17.10;99.90
25128;DHT22;13107;51.304;6.866;2023-06-22T20:56:43;17.10;99.90
25128;DHT22;13107;51.304;6.866;2023-06-22T21:00:46;17.10;99.90
25128;DHT22;13107;51.304;6.866;2023-06-22T21:04:48;17.10;99.90
25128;DHT22;13107;51.304;6.866;2023-06-22T21:08:50;17.10;99.90
25128;DHT22;13107;51.304;6.866;2023-06-22T21:12:52;17.00;99.90
25128;DHT22;13107;51.304;6.866;2023-06-22T21:16:54;16.90;99.90
25128;DHT22;13107;51.304;6.866;2023-06-22T21:20:56;16.90;99.90
25128;DHT22;13107;51.304;6.866;2023-06-22T21:25:09;16.90;99.90
25128;DHT22;13107;51.304;6.866;2023-06-22T21:29:11;16.80;99.90
25128;DHT22;13107;51.304;6.866;2023-06-22T21:33:13;16.80;99.90
25128;DHT22;13107;51.304;6.866;2023-06-22T21:37:15;16.90;99.90
25128;DHT22;13107;51.304;6.866;2023-06-22T21:41:17;16.80;99.90
25128;DHT22;13107;51.304;6.866;2023-06-22T21:45:18;16.80;99.90
25128;DHT22;13107;51.304;6.866;2023-06-22T21:49:20;16.70;99.90
25128;DHT22;13107;51.304;6.866;2023-06-22T21:53:22;16.70;99.90
25128;DHT22;13107;51.304;6.866;2023-06-22T21:57:28;16.70;99.90
25128;DHT22;13107;51.304;6.866;2023-06-22T22:01:29;16.60;99.90
25128;DHT22;13107;51.304;6.866;2023-06-22T22:05:31;16.60;99.90
25128;DHT22;13107;51.304;6.866;2023-06-22T22:09:34;16.60;99.90
25128;DHT22;13107;51.304;6.866;2023-06-22T22:13:35;16.60;99.90
25128;DHT22;13107;51.304;6.866;2023-06-22T22:17:38;16.50;99.90
25128;DHT22;13107;51.304;6.866;2023-06-22T22:21:40;16.50;99.90
25128;DHT22;13107;51.304;6.866;2023-06-22T22:25:41;16.40;99.90
25128;DHT22;13107;51.304;6.866;2023-06-22T22:29:43;16.50;99.90
25128;DHT22;13107;51.304;6.866;2023-06-22T22:33:46;16.50;99.90
25128;DHT22;13107;51.304;6.866;2023-06-22T22:37:48;16.40;99.90
25128;DHT22;13107;51.304;6.866;2023-06-22T22:41:50;16.30;99.90
25128;DHT22;13107;51.304;6.866;2023-06-22T22:45:51;16.30;99.90
25128;DHT22;13107;51.304;6.866;2023-06-22T22:49:53;16.40;99.90
25128;DHT22;13107;51.304;6.866;2023-06-22T22:53:55;16.40;99.90
25128;DHT22;13107;51.304;6.866;2023-06-22T22:57:56;16.30;99.90
25128;DHT22;13107;51.304;6.866;2023-06-22T23:01:58;16.30;99.90
25128;DHT22;13107;51.304;6.866;2023-06-22T23:06:00;16.20;99.90
25128;DHT22;13107;51.304;6.866;2023-06-22T23:10:02;16.20;99.90
25128;DHT22;13107;51.304;6.866;2023-06-22T23:14:04;16.20;99.90
25128;DHT22;13107;51.304;6.866;2023-06-22T23:18:05;16.20;99.90
25128;DHT22;13107;51.304;6.866;2023-06-22T23:22:11;16.10;99.90
25128;DHT22;13107;51.304;6.866;2023-06-22T23:26:13;16.10;99.90
25128;DHT22;13107;51.304;6.866;2023-06-22T23:30:16;16.00;99.90
25128;DHT22;13107;51.304;6.866;2023-06-22T23:34:18;16.00;99.90
25128;DHT22;13107;51.304;6.866;2023-06-22T23:38:20;16.00;99.90
25128;DHT22;13107;51.304;6.866;2023-06-22T23:42:22;16.00;99.90
25128;DHT22;13107;51.304;6.866;2023-06-22T23:46:23;16.00;99.90
25128;DHT22;13107;51.304;6.866;2023-06-22T23:50:26;16.00;99.90
25128;DHT22;13107;51.304;6.866;2023-06-22T23:54:28;16.00;99.90
25128;DHT22;13107;51.304;6.866;2023-06-22T23:58:30;16.00;99.90
